Statewide Weather Sensors

Route Weather Station Name Milepost Date / Time Surface Status Surface Temp Precip Intensity Wind Avg Wind Gust Dir Dewpoint Humidity Air Temp Visibility
I 25 Wyo Hill 3.52 Aug 01, 2021 10:54 am     None None 13 mph 19 mph SE 46.4°F 44% 69.8°F > 1/2 mi
I 25 Whitaker 28.1 Aug 01, 2021 10:54 am Dry 99.1°F None None 14 mph 21 mph SE 42.8°F 34% 71.6°F > 1/2 mi
I 25 Bear Creek 46.77 Aug 01, 2021 10:54 am Dry 103.3°F None None 7 mph 15 mph SE 46.4°F 39% 71.6°F > 1/2 mi
I 25 Bordeaux 70.8 Aug 01, 2021 10:54 am Dry 101.5°F None   12 mph 16 mph SE 50.0°F 43% 75.2°F  
I 25 Coleman 98.7 Aug 01, 2021 10:54 am Dry 95.4°F None None 8 mph 14 mph S 51.8°F 49% 73.4°F > 1/2 mi
I 25 Platte/Converse County Line 119.9 Aug 01, 2021 10:54 am Dry 95.2°F None None 11 mph 11 mph SE 55.4°F 38% 78.8°F > 1/2 mi
I 25 Deer Creek 164.2 Aug 01, 2021 10:54 am Dry 99.1°F None None 7 mph 13 mph NE 53.6°F 44% 75.2°F > 1/2 mi
I 25 Hat Six 181.67 Jul 30, 2021 02:18 am                      
I 25 F Street Hill 189.51 Aug 01, 2021 10:54 am Dry 79.0°F None None 5 mph 9 mph E 53.6°F 53% 71.6°F > 1/2 mi
I 25 Twenty Mile Hill 207.2 Aug 01, 2021 10:54 am     None None 7 mph 13 mph E 44.6°F 34% 75.2°F > 1/2 mi
I 25 Smokey Gap 228.58 Aug 01, 2021 10:54 am Dry 94.5°F None None 4 mph 11 mph SE 46.4°F 33% 77.0°F > 1/2 mi
I 25 Tisdale 238.87 Aug 01, 2021 10:55 am Dry 92.3°F None None 7 mph 13 mph SE 48.2°F 32% 78.8°F > 1/2 mi
I 25 I-25 Divide 267.3 Jul 30, 2021 10:44 pm                      
I 80 Evanston POE .06 Aug 01, 2021 10:54 am Dry 79.7°F None   11 mph 17 mph NE 50.0°F 55% 66.2°F > 1/2 mi
I 80 Evanston 4.2 Aug 01, 2021 10:54 am Dry 97.9°F None None 7 mph 13 mph NE 51.8°F 54% 69.8°F > 1/2 mi
I 80 Bear River Drive 6.94 Aug 01, 2021 10:54 am Dry 78.1°F None   1 mph 8 mph E 51.8°F 54% 69.8°F > 1/2 mi
I 80 Painter 10.16 Aug 01, 2021 10:54 am Dry 87.1°F None None 11 mph 17 mph E 51.8°F 57% 68.0°F > 1/2 mi
I 80 First Divide 13.86 Aug 01, 2021 10:54 am Dry 92.5°F None None 14 mph 18 mph NE 51.8°F 65% 62.6°F > 1/2 mi
I 80 US 189 Interchange 17.66 Aug 01, 2021 10:54 am Dry 88.0°F None None 4 mph 11 mph N 55.4°F 69% 66.2°F > 1/2 mi
I 80 Coal Road 20.95 Aug 01, 2021 10:54 am Dry 91.9°F None None 8 mph 12 mph E 51.8°F 65% 64.4°F > 1/2 mi
I 80 Leroy 23.35 Aug 01, 2021 10:54 am Dry 90.9°F None None 3 mph 10 mph NE 53.6°F 61% 66.2°F > 1/2 mi
I 80 French 27.6 Aug 01, 2021 10:54 am Dry 87.4°F None None 7 mph 10 mph E 51.8°F 61% 66.2°F > 1/2 mi
I 80 Church Butte 52.65 Aug 01, 2021 10:54 am Dry 97.0°F None None 8 mph 14 mph NE 55.4°F 63% 68.0°F > 1/2 mi
I 80 Peru Hill 82.31 Aug 01, 2021 10:54 am Dry 104.4°F None None 2 mph 9 mph SE 50.0°F 43% 73.4°F > 1/2 mi
I 80 Green River Tunnel 90.5 Aug 01, 2021 10:54 am Dry 96.8°F None None 9 mph 14 mph NE 48.2°F 44% 71.6°F > 1/2 mi
I 80 Rock Springs West 97.9 Aug 01, 2021 10:54 am N/A   None None 6 mph 12 mph NE 50.0°F 45% 71.6°F > 1/2 mi
I 80 Baxter Road 111.5 Aug 01, 2021 10:54 am     None None 4 mph 13 mph NE 46.4°F 37% 73.4°F > 1/2 mi
I 80 Mile Marker 124.5 124.5 Aug 01, 2021 10:54 am Dry 102.4°F None None 9 mph 16 mph E 44.6°F 36% 73.4°F > 1/2 mi
I 80 Point of Rocks 129.8 Aug 01, 2021 10:54 am Dry 101.7°F None None 5 mph 9 mph E 46.4°F 37% 75.2°F > 1/2 mi
I 80 Bitter Creek 141.83 Aug 01, 2021 10:54 am Dry 93.4°F None None 3 mph 11 mph E 44.6°F 42% 68.0°F > 1/2 mi
I 80 Tipton 156.72 Aug 01, 2021 10:54 am Dry 98.1°F None None 3 mph 7 mph NE 42.8°F 34% 73.4°F > 1/2 mi
I 80 Continental Divide 184.3 Aug 01, 2021 10:54 am     None None 14 mph 19 mph E 39.2°F 30% 73.4°F > 1/2 mi
I 80 Sinclair 221.7 Aug 01, 2021 10:54 am N/A   None None 4 mph 8 mph E 41.0°F 35% 69.8°F > 1/2 mi
I 80 Walcott Junction 234.66 Aug 01, 2021 10:54 am Dry 102.0°F None None 7 mph 15 mph SE 35.6°F 25% 73.4°F > 1/2 mi
I 80 Dana Ridge 244.8 Aug 01, 2021 10:54 am Dry 99.9°F None None 20 mph 27 mph E 30.2°F 21% 71.6°F > 1/2 mi
I 80 Mile Marker 249.1 249.1 Aug 01, 2021 10:54 am N/A   None None 24 mph 35 mph S 28.4°F 21% 71.6°F > 1/2 mi
I 80 Halleck Ridge 252.16 Aug 01, 2021 10:54 am Dry 95.9°F None None 34 mph 44 mph E 30.2°F 24% 68.0°F > 1/2 mi
I 80 Elk Mountain 256.17 Aug 01, 2021 10:54 am Dry 96.8°F None None 22 mph 32 mph NE 28.4°F 21% 71.6°F > 1/2 mi
I 80 County Road 402 262 Aug 01, 2021 10:54 am Dry 98.2°F None None 27 mph 37 mph NE 30.2°F 23% 68.0°F > 1/2 mi
I 80 Wagonhound 266.58 Aug 01, 2021 10:54 am N/A   None None 25 mph 34 mph E       > 1/2 mi
I 80 Foote Creek 269.5 Aug 01, 2021 10:54 am Dry 93.7°F None None 30 mph 39 mph NE 32.0°F 28% 66.2°F > 1/2 mi
I 80 Arlington 271.8 Aug 01, 2021 10:54 am N/A   None None 17 mph 27 mph E 33.8°F 29% 66.2°F > 1/2 mi
I 80 Arlington East 273.85 Aug 01, 2021 10:54 am Dry 95.9°F None None 21 mph 32 mph SE 37.4°F 35% 66.2°F > 1/2 mi
I 80 Cooper Cove 279.36 Aug 01, 2021 10:54 am Dry 80.6°F None None 19 mph 30 mph E 41.0°F 42% 64.4°F > 1/2 mi
I 80 Strouss Hill 283.75 Aug 01, 2021 10:54 am N/A   None None 18 mph 29 mph SE 41.0°F 42% 64.4°F > 1/2 mi
I 80 Quealy Dome 289.5 Aug 01, 2021 10:54 am N/A   None None 13 mph 22 mph S 33.8°F 28% 68.0°F > 1/2 mi
I 80 Herrick Lane 297.66 Aug 01, 2021 10:54 am Dry 86.9°F None     22 mph          
I 80 Summit East 325.8 Aug 01, 2021 10:54 am Dry 91.6°F None None 17 mph 24 mph SE 39.2°F 45% 60.8°F > 1/2 mi
I 80 Vedauwoo 329.4 Aug 01, 2021 10:54 am Dry 88.7°F None None 18 mph 24 mph SE 42.8°F 52% 60.8°F > 1/2 mi
I 80 Lone Tree 333.32 Aug 01, 2021 10:54 am Dry 87.8°F None None 15 mph 19 mph SE 46.4°F 56% 60.8°F > 1/2 mi
I 80 Buford East 336.1 Aug 01, 2021 10:54 am Dry 89.2°F None None 14 mph 23 mph SE 46.4°F 55% 62.6°F > 1/2 mi
I 80 Remount Road 340.5 Aug 01, 2021 10:54 am N/A   None None 14 mph 18 mph N 48.2°F 58% 64.4°F > 1/2 mi
I 80 Otto 347.69 Aug 01, 2021 10:54 am N/A   None None 15 mph 21 mph SE 48.2°F 55% 66.2°F > 1/2 mi
I 80 MP 353 353 Aug 01, 2021 10:54 am Dry 97.0°F None None 0 mph 0 mph E 48.2°F 49% 66.2°F > 1/2 mi
I 80 Cheyenne East 373 Aug 01, 2021 10:54 am Wet 78.6°F None None 9 mph 16 mph S 46.4°F 39% 73.4°F > 1/2 mi
I 90 Montana State Line .1 Aug 01, 2021 10:54 am Dry 106.2°F None None 9 mph 14 mph S 48.2°F 34% 78.8°F > 1/2 mi
I 90 Pompey Creek 35.3 Aug 01, 2021 10:54 am N/A   None None 2 mph 7 mph E 42.8°F 29% 68.0°F > 1/2 mi
I 90 Sheridan/Johnson County Line 41.33 Aug 01, 2021 10:54 am Trace Moisture 103.3°F None None 5 mph 10 mph SW 44.6°F 34% 68.0°F > 1/2 mi
I 90 Piney Creek Interchange 44.7 Aug 01, 2021 10:54 am Dry 97.9°F None   5 mph 9 mph E 44.6°F 29% 80.6°F  
I 90 Kearny Divide 45.33 Aug 01, 2021 10:54 am Dry   None None 9 mph 11 mph E 41.0°F 29% 66.2°F > 1/2 mi
I 90 Indian Creek Road 83.3 Aug 01, 2021 10:54 am Dry 104.4°F None None 13 mph 19 mph S 44.6°F 30% 78.8°F > 1/2 mi
I 90 Dead Horse 91.5 Aug 01, 2021 10:54 am Dry 105.4°F None None 7 mph 12 mph S 46.4°F 28% 82.4°F > 1/2 mi
I 90 Mile Marker 108 108 Aug 01, 2021 10:54 am Dry 107.8°F None None 10 mph 17 mph S 50.0°F 36% 78.8°F > 1/2 mi
I 90 Inyan Kara 170.5 Aug 01, 2021 10:54 am Dry 103.3°F None   5 mph 9 mph S 39.2°F 22% 80.6°F  
I 90 Beulah 205.9 Aug 01, 2021 10:54 am Dry 87.1°F None None 6 mph 11 mph E 44.6°F 28% 80.6°F > 1/2 mi
US 14 Ucross 27.83 Aug 01, 2021 10:54 am Dry 103.8°F Rain None 1 mph 6 mph E 53.6°F 37% 82.4°F > 1/2 mi
US 14 Granite Pass 38.95 Aug 01, 2021 10:54 am N/A   None None 1 mph 7 mph SE 37.4°F 38% 62.6°F > 1/2 mi
US 16 Big Horn County Line 44.01 Aug 01, 2021 10:54 am Trace Moisture 89.6°F None None 4 mph 9 mph S 41.0°F 38% 66.2°F > 1/2 mi
US 191 Farson 40.45 Aug 01, 2021 10:54 am Dry 100.4°F None None 13 mph 19 mph E 42.8°F 33% 73.4°F > 1/2 mi
US 191 Warren Bridge 119.9 Aug 01, 2021 10:54 am Dry 91.0°F None None 6 mph 14 mph S 46.4°F 46% 66.2°F > 1/2 mi
US 20 Natrona 30 Aug 01, 2021 10:54 am N/A   None None 4 mph 5 mph N 46.4°F 36% 75.2°F > 1/2 mi
US 20 Hiland 57.4 Aug 01, 2021 10:54 am Dry 97.9°F None None 11 mph 13 mph E       > 1/2 mi
US 20 Van Tassell 57.85 Aug 01, 2021 10:54 am Dry 99.0°F None None 6 mph 13 mph S 48.2°F 37% 75.2°F > 1/2 mi
US 26 Wind River Lake 26.05 Aug 01, 2021 10:54 am Dry 86.9°F None None 9 mph 19 mph SW 42.8°F 57% 57.2°F > 1/2 mi
US 287 Pumpkin Vine 420.4 Aug 01, 2021 10:54 am Dry 96.3°F None None 16 mph 22 mph S 44.6°F 53% 62.6°F > 1/2 mi
US 30 Sage Junction 34 Aug 01, 2021 10:54 am N/A   None None 17 mph 22 mph E 51.8°F 49% 71.6°F > 1/2 mi
US 30 Nugget Canyon 39.7 Aug 01, 2021 10:54 am Dry 106.0°F None None 10 mph 16 mph SE 50.0°F 48% 71.6°F > 1/2 mi
US 85 Gun Barrel 46.8 Aug 01, 2021 10:54 am Dry 91.4°F None None 4 mph 11 mph SW 48.2°F 41% 73.4°F > 1/2 mi
US 85 Four Corners 247.2 Aug 01, 2021 10:54 am Dry 98.1°F None None 4 mph 12 mph SW 44.6°F 39% 69.8°F > 1/2 mi
WY 120 Meeteetse 61.5 Aug 01, 2021 10:54 am     None None 9 mph 16 mph E 53.6°F 43% 78.8°F > 1/2 mi
WY 210 Wildcat Trail 21.52 Aug 01, 2021 10:54 am Dry 98.1°F None None 15 mph 23 mph SE 44.6°F 49% 64.4°F > 1/2 mi
WY 210 Hynds Lodge Road 24.55 Aug 01, 2021 10:54 am N/A   None None 7 mph 16 mph SE 44.6°F 49% 64.4°F > 1/2 mi
WY 22 Teton Pass 11.2 Aug 01, 2021 10:54 am Dry 95.9°F None None 8 mph 15 mph E 48.2°F 61% 62.6°F > 1/2 mi
WY 220 Pathfinder Hill 80.1 Aug 01, 2021 10:54 am Dry 99.5°F None None 13 mph 22 mph E 41.0°F 29% 75.2°F > 1/2 mi
WY 230 Skyline 230 113.2 Aug 01, 2021 10:54 am Dry 99.0°F None None 18 mph 27 mph SE 37.4°F 36% 66.2°F > 1/2 mi
WY 258 Outer Drive 13.77 Aug 01, 2021 10:54 am Dry 96.8°F None None 2 mph 7 mph E 51.8°F 51% 71.6°F > 1/2 mi
WY 28 New South Pass 41.4 Aug 01, 2021 10:54 am Dry 92.7°F None None 16 mph 22 mph NE 37.4°F 35% 64.4°F > 1/2 mi
WY 28 Lower Red Canyon 59.71 Aug 01, 2021 10:54 am Dry 90.5°F None None 4 mph 12 mph NW 51.8°F 58% 66.2°F > 1/2 mi
WY 296 Chief Joseph 32.96 Aug 01, 2021 10:54 am Wet 95.5°F None None 14 mph 19 mph S 44.6°F 48% 64.4°F > 1/2 mi
WY 372 Shute Creek 34 Aug 01, 2021 10:54 am Dry 104.4°F None None 10 mph 18 mph NE 44.6°F 36% 73.4°F > 1/2 mi
WY 387 Pine Tree Junction 131.79 Aug 01, 2021 10:54 am Trace Moisture   None None 9 mph 14 mph NW 50.0°F 44% 73.4°F > 1/2 mi
WY 487 Shirley Rim 37 Aug 01, 2021 10:54 am Dry 92.7°F None None 1 mph 1 mph W 44.6°F 45% 66.2°F > 1/2 mi
WY 59 Belle Fourche 87 Aug 01, 2021 10:54 am Dry 97.3°F None   8 mph 14 mph SE 51.8°F 40% 77.0°F  
WY 789 Beaver Rim 48.1 Aug 01, 2021 10:54 am     None None 6 mph 9 mph N 48.2°F 49% 66.2°F > 1/2 mi

Contact Us
Copyright 2021 Disclaimer Privacy Policy Media